sensor_id;sensor_type;location;lat;lon;timestamp;P1;durP1;ratioP1;P2;durP2;ratioP2
7645;SDS011;3864;48.180;14.178;2023-03-14T05:23:02;1.95;;;1.20;;
7645;SDS011;3864;48.180;14.178;2023-03-14T05:25:28;2.90;;;1.50;;
7645;SDS011;3864;48.180;14.178;2023-03-14T05:30:22;2.17;;;1.55;;
7645;SDS011;3864;48.180;14.178;2023-03-14T05:35:16;2.90;;;1.45;;
7645;SDS011;3864;48.180;14.178;2023-03-14T05:37:42;3.28;;;1.40;;
7645;SDS011;3864;48.180;14.178;2023-03-14T05:40:12;1.77;;;1.30;;
7645;SDS011;3864;48.180;14.178;2023-03-14T05:42:39;2.50;;;1.50;;
7645;SDS011;3864;48.180;14.178;2023-03-14T05:45:06;2.50;;;1.60;;
7645;SDS011;3864;48.180;14.178;2023-03-14T05:47:33;2.70;;;1.60;;
7645;SDS011;3864;48.180;14.178;2023-03-14T05:50:00;2.42;;;1.58;;
7645;SDS011;3864;48.180;14.178;2023-03-14T05:52:27;2.47;;;1.50;;
7645;SDS011;3864;48.180;14.178;2023-03-14T05:54:54;2.92;;;1.73;;
7645;SDS011;3864;48.180;14.178;2023-03-14T05:57:22;2.85;;;1.55;;
7645;SDS011;3864;48.180;14.178;2023-03-14T05:59:50;3.03;;;1.70;;
7645;SDS011;3864;48.180;14.178;2023-03-14T06:04:43;4.00;;;2.17;;
7645;SDS011;3864;48.180;14.178;2023-03-14T06:09:37;3.38;;;2.10;;
7645;SDS011;3864;48.180;14.178;2023-03-14T06:12:04;7.03;;;2.45;;
7645;SDS011;3864;48.180;14.178;2023-03-14T06:14:33;3.38;;;2.30;;
7645;SDS011;3864;48.180;14.178;2023-03-14T06:17:00;3.40;;;2.00;;
7645;SDS011;3864;48.180;14.178;2023-03-14T06:19:26;2.88;;;2.00;;
7645;SDS011;3864;48.180;14.178;2023-03-14T06:21:53;4.80;;;1.80;;
7645;SDS011;3864;48.180;14.178;2023-03-14T06:26:46;1.52;;;1.20;;
7645;SDS011;3864;48.180;14.178;2023-03-14T06:29:13;3.63;;;1.40;;
7645;SDS011;3864;48.180;14.178;2023-03-14T06:31:41;2.47;;;1.10;;
7645;SDS011;3864;48.180;14.178;2023-03-14T06:34:08;1.77;;;1.30;;
7645;SDS011;3864;48.180;14.178;2023-03-14T06:36:34;3.88;;;1.60;;
7645;SDS011;3864;48.180;14.178;2023-03-14T06:41:28;3.00;;;1.55;;
7645;SDS011;3864;48.180;14.178;2023-03-14T06:43:55;2.78;;;1.27;;
7645;SDS011;3864;48.180;14.178;2023-03-14T06:48:50;6.40;;;1.52;;
7645;SDS011;3864;48.180;14.178;2023-03-14T06:51:17;3.35;;;1.30;;
7645;SDS011;3864;48.180;14.178;2023-03-14T06:56:10;2.22;;;1.40;;
7645;SDS011;3864;48.180;14.178;2023-03-14T06:58:37;2.83;;;1.35;;
7645;SDS011;3864;48.180;14.178;2023-03-14T07:01:04;2.42;;;1.42;;
7645;SDS011;3864;48.180;14.178;2023-03-14T07:03:32;1.85;;;1.30;;
7645;SDS011;3864;48.180;14.178;2023-03-14T07:08:27;2.10;;;1.50;;
7645;SDS011;3864;48.180;14.178;2023-03-14T07:10:55;1.77;;;1.17;;
7645;SDS011;3864;48.180;14.178;2023-03-14T07:13:22;1.27;;;1.10;;
7645;SDS011;3864;48.180;14.178;2023-03-14T07:18:16;2.80;;;1.50;;
7645;SDS011;3864;48.180;14.178;2023-03-14T07:20:44;3.85;;;1.33;;
7645;SDS011;3864;48.180;14.178;2023-03-14T07:23:11;1.35;;;1.20;;
7645;SDS011;3864;48.180;14.178;2023-03-14T07:28:06;2.97;;;1.15;;
7645;SDS011;3864;48.180;14.178;2023-03-14T07:30:33;5.40;;;1.63;;
7645;SDS011;3864;48.180;14.178;2023-03-14T07:33:00;2.20;;;1.48;;
7645;SDS011;3864;48.180;14.178;2023-03-14T07:37:54;1.90;;;1.30;;
7645;SDS011;3864;48.180;14.178;2023-03-14T07:42:48;3.38;;;1.38;;
7645;SDS011;3864;48.180;14.178;2023-03-14T07:45:16;3.00;;;1.67;;
7645;SDS011;3864;48.180;14.178;2023-03-14T07:47:43;3.10;;;1.58;;
7645;SDS011;3864;48.180;14.178;2023-03-14T07:50:10;3.00;;;1.88;;
7645;SDS011;3864;48.180;14.178;2023-03-14T07:52:37;2.80;;;1.48;;
7645;SDS011;3864;48.180;14.178;2023-03-14T07:55:05;2.40;;;1.40;;
7645;SDS011;3864;48.180;14.178;2023-03-14T07:57:32;4.07;;;1.50;;
7645;SDS011;3864;48.180;14.178;2023-03-14T08:02:27;1.73;;;1.05;;
7645;SDS011;3864;48.180;14.178;2023-03-14T08:04:54;3.00;;;1.00;;
7645;SDS011;3864;48.180;14.178;2023-03-14T08:09:47;2.20;;;1.38;;
7645;SDS011;3864;48.180;14.178;2023-03-14T08:12:14;2.28;;;1.30;;
7645;SDS011;3864;48.180;14.178;2023-03-14T08:14:41;3.50;;;1.40;;
7645;SDS011;3864;48.180;14.178;2023-03-14T08:17:08;2.17;;;1.45;;
7645;SDS011;3864;48.180;14.178;2023-03-14T08:19:37;2.53;;;1.30;;
7645;SDS011;3864;48.180;14.178;2023-03-14T08:22:04;2.13;;;1.48;;
7645;SDS011;3864;48.180;14.178;2023-03-14T08:24:30;1.25;;;1.10;;
7645;SDS011;3864;48.180;14.178;2023-03-14T08:26:57;1.98;;;1.20;;
7645;SDS011;3864;48.180;14.178;2023-03-14T08:31:51;1.35;;;0.93;;
7645;SDS011;3864;48.180;14.178;2023-03-14T08:34:19;2.75;;;1.73;;
7645;SDS011;3864;48.180;14.178;2023-03-14T08:36:48;2.17;;;1.30;;
7645;SDS011;3864;48.180;14.178;2023-03-14T08:39:15;3.42;;;1.38;;
7645;SDS011;3864;48.180;14.178;2023-03-14T08:41:43;1.40;;;1.00;;
7645;SDS011;3864;48.180;14.178;2023-03-14T08:46:37;2.40;;;0.70;;
7645;SDS011;3864;48.180;14.178;2023-03-14T08:51:31;2.10;;;1.08;;
7645;SDS011;3864;48.180;14.178;2023-03-14T08:54:00;2.53;;;1.02;;
7645;SDS011;3864;48.180;14.178;2023-03-14T08:56:27;3.67;;;1.50;;
7645;SDS011;3864;48.180;14.178;2023-03-14T08:58:53;3.50;;;1.42;;
7645;SDS011;3864;48.180;14.178;2023-03-14T09:03:49;3.83;;;1.52;;
7645;SDS011;3864;48.180;14.178;2023-03-14T09:08:43;2.03;;;0.90;;
7645;SDS011;3864;48.180;14.178;2023-03-14T09:11:12;2.13;;;1.38;;
7645;SDS011;3864;48.180;14.178;2023-03-14T09:13:39;1.27;;;0.90;;
7645;SDS011;3864;48.180;14.178;2023-03-14T09:18:32;1.45;;;0.90;;
7645;SDS011;3864;48.180;14.178;2023-03-14T09:25:58;2.63;;;0.77;;
7645;SDS011;3864;48.180;14.178;2023-03-14T09:28:27;2.83;;;1.25;;
7645;SDS011;3864;48.180;14.178;2023-03-14T09:31:24;1.63;;;0.80;;
7645;SDS011;3864;48.180;14.178;2023-03-14T09:33:52;2.70;;;1.00;;
7645;SDS011;3864;48.180;14.178;2023-03-14T09:36:22;1.23;;;0.70;;
7645;SDS011;3864;48.180;14.178;2023-03-14T09:38:49;1.58;;;0.82;;
7645;SDS011;3864;48.180;14.178;2023-03-14T09:43:42;1.45;;;0.98;;
7645;SDS011;3864;48.180;14.178;2023-03-14T09:46:10;3.10;;;1.17;;
7645;SDS011;3864;48.180;14.178;2023-03-14T09:48:44;2.17;;;1.00;;
7645;SDS011;3864;48.180;14.178;2023-03-14T09:51:15;2.13;;;0.82;;
7645;SDS011;3864;48.180;14.178;2023-03-14T09:53:43;1.05;;;0.80;;
7645;SDS011;3864;48.180;14.178;2023-03-14T09:56:11;2.42;;;0.73;;
7645;SDS011;3864;48.180;14.178;2023-03-14T09:58:39;2.40;;;1.05;;
7645;SDS011;3864;48.180;14.178;2023-03-14T10:01:07;1.33;;;0.70;;
7645;SDS011;3864;48.180;14.178;2023-03-14T10:03:36;1.08;;;0.75;;
7645;SDS011;3864;48.180;14.178;2023-03-14T10:06:08;2.67;;;1.10;;
7645;SDS011;3864;48.180;14.178;2023-03-14T10:08:38;1.30;;;0.85;;
7645;SDS011;3864;48.180;14.178;2023-03-14T10:11:05;1.70;;;1.13;;
7645;SDS011;3864;48.180;14.178;2023-03-14T10:13:32;1.48;;;1.10;;
7645;SDS011;3864;48.180;14.178;2023-03-14T10:18:27;2.78;;;1.05;;
7645;SDS011;3864;48.180;14.178;2023-03-14T10:21:02;1.48;;;1.00;;
7645;SDS011;3864;48.180;14.178;2023-03-14T10:23:31;3.65;;;1.30;;
7645;SDS011;3864;48.180;14.178;2023-03-14T10:26:02;2.33;;;1.13;;
7645;SDS011;3864;48.180;14.178;2023-03-14T10:28:31;1.23;;;0.90;;
7645;SDS011;3864;48.180;14.178;2023-03-14T10:30:58;2.75;;;1.10;;
7645;SDS011;3864;48.180;14.178;2023-03-14T10:33:26;3.03;;;1.13;;
7645;SDS011;3864;48.180;14.178;2023-03-14T10:35:53;3.42;;;1.25;;
7645;SDS011;3864;48.180;14.178;2023-03-14T10:38:22;2.13;;;1.08;;
7645;SDS011;3864;48.180;14.178;2023-03-14T10:40:51;1.17;;;0.90;;
7645;SDS011;3864;48.180;14.178;2023-03-14T10:43:20;1.00;;;0.93;;
7645;SDS011;3864;48.180;14.178;2023-03-14T10:45:52;2.72;;;1.38;;
7645;SDS011;3864;48.180;14.178;2023-03-14T10:48:23;2.67;;;1.63;;
7645;SDS011;3864;48.180;14.178;2023-03-14T10:50:54;2.00;;;1.13;;
7645;SDS011;3864;48.180;14.178;2023-03-14T10:53:22;2.20;;;1.08;;
7645;SDS011;3864;48.180;14.178;2023-03-14T10:55:49;1.23;;;0.93;;
7645;SDS011;3864;48.180;14.178;2023-03-14T11:01:05;1.40;;;0.73;;
7645;SDS011;3864;48.180;14.178;2023-03-14T11:03:35;1.55;;;0.63;;
7645;SDS011;3864;48.180;14.178;2023-03-14T11:06:05;1.35;;;0.88;;
7645;SDS011;3864;48.180;14.178;2023-03-14T11:08:35;0.68;;;0.57;;
7645;SDS011;3864;48.180;14.178;2023-03-14T11:11:07;2.08;;;1.08;;
7645;SDS011;3864;48.180;14.178;2023-03-14T11:13:38;0.95;;;0.90;;
7645;SDS011;3864;48.180;14.178;2023-03-14T11:16:09;2.03;;;1.00;;
7645;SDS011;3864;48.180;14.178;2023-03-14T11:18:46;0.98;;;0.80;;
7645;SDS011;3864;48.180;14.178;2023-03-14T11:21:16;1.50;;;1.08;;
7645;SDS011;3864;48.180;14.178;2023-03-14T11:23:47;0.75;;;0.75;;
7645;SDS011;3864;48.180;14.178;2023-03-14T11:26:20;0.52;;;0.52;;
7645;SDS011;3864;48.180;14.178;2023-03-14T11:28:53;1.95;;;0.82;;
7645;SDS011;3864;48.180;14.178;2023-03-14T11:31:26;1.05;;;0.80;;
7645;SDS011;3864;48.180;14.178;2023-03-14T11:33:55;0.88;;;0.65;;
7645;SDS011;3864;48.180;14.178;2023-03-14T11:36:25;1.10;;;0.93;;
7645;SDS011;3864;48.180;14.178;2023-03-14T11:38:55;1.23;;;0.98;;
7645;SDS011;3864;48.180;14.178;2023-03-14T11:41:24;0.90;;;0.50;;
7645;SDS011;3864;48.180;14.178;2023-03-14T11:43:53;0.47;;;0.47;;
7645;SDS011;3864;48.180;14.178;2023-03-14T11:46:21;0.47;;;0.20;;
7645;SDS011;3864;48.180;14.178;2023-03-14T11:48:53;1.00;;;0.50;;
7645;SDS011;3864;48.180;14.178;2023-03-14T11:51:23;0.40;;;0.38;;
7645;SDS011;3864;48.180;14.178;2023-03-14T11:53:54;1.55;;;0.80;;
7645;SDS011;3864;48.180;14.178;2023-03-14T11:56:24;1.42;;;0.65;;
7645;SDS011;3864;48.180;14.178;2023-03-14T11:58:59;1.05;;;0.63;;
7645;SDS011;3864;48.180;14.178;2023-03-14T12:01:40;0.52;;;0.52;;
7645;SDS011;3864;48.180;14.178;2023-03-14T12:04:12;0.98;;;0.68;;
7645;SDS011;3864;48.180;14.178;2023-03-14T12:06:41;0.57;;;0.50;;
7645;SDS011;3864;48.180;14.178;2023-03-14T12:09:13;0.75;;;0.70;;
7645;SDS011;3864;48.180;14.178;2023-03-14T12:11:40;0.65;;;0.57;;
7645;SDS011;3864;48.180;14.178;2023-03-14T12:14:18;0.60;;;0.60;;
7645;SDS011;3864;48.180;14.178;2023-03-14T12:16:46;0.63;;;0.63;;
7645;SDS011;3864;48.180;14.178;2023-03-14T12:19:24;0.88;;;0.30;;
7645;SDS011;3864;48.180;14.178;2023-03-14T12:21:52;0.57;;;0.30;;
7645;SDS011;3864;48.180;14.178;2023-03-14T12:24:21;0.75;;;0.60;;
7645;SDS011;3864;48.180;14.178;2023-03-14T12:26:52;0.43;;;0.38;;
7645;SDS011;3864;48.180;14.178;2023-03-14T12:29:19;0.95;;;0.68;;
7645;SDS011;3864;48.180;14.178;2023-03-14T12:34:27;0.52;;;0.50;;
7645;SDS011;3864;48.180;14.178;2023-03-14T12:36:56;0.75;;;0.75;;
7645;SDS011;3864;48.180;14.178;2023-03-14T12:39:31;0.90;;;0.57;;
7645;SDS011;3864;48.180;14.178;2023-03-14T12:42:03;0.63;;;0.40;;
7645;SDS011;3864;48.180;14.178;2023-03-14T12:44:40;1.23;;;0.60;;
7645;SDS011;3864;48.180;14.178;2023-03-14T12:50:14;0.55;;;0.40;;
7645;SDS011;3864;48.180;14.178;2023-03-14T12:52:44;0.63;;;0.52;;
7645;SDS011;3864;48.180;14.178;2023-03-14T12:57:42;1.02;;;0.50;;
7645;SDS011;3864;48.180;14.178;2023-03-14T13:00:16;0.88;;;0.57;;
7645;SDS011;3864;48.180;14.178;2023-03-14T13:02:44;0.70;;;0.70;;
7645;SDS011;3864;48.180;14.178;2023-03-14T13:05:13;0.93;;;0.65;;
7645;SDS011;3864;48.180;14.178;2023-03-14T13:10:27;1.23;;;0.70;;
7645;SDS011;3864;48.180;14.178;2023-03-14T13:12:55;0.32;;;0.32;;
7645;SDS011;3864;48.180;14.178;2023-03-14T13:15:24;0.77;;;0.50;;
7645;SDS011;3864;48.180;14.178;2023-03-14T13:17:53;0.57;;;0.57;;
7645;SDS011;3864;48.180;14.178;2023-03-14T13:20:24;1.35;;;0.82;;
7645;SDS011;3864;48.180;14.178;2023-03-14T13:22:53;0.93;;;0.65;;
7645;SDS011;3864;48.180;14.178;2023-03-14T13:25:20;0.82;;;0.60;;
7645;SDS011;3864;48.180;14.178;2023-03-14T13:27:48;2.08;;;0.77;;
7645;SDS011;3864;48.180;14.178;2023-03-14T13:30:16;1.52;;;0.88;;
7645;SDS011;3864;48.180;14.178;2023-03-14T13:32:44;1.88;;;0.82;;
7645;SDS011;3864;48.180;14.178;2023-03-14T13:35:16;2.13;;;1.58;;
7645;SDS011;3864;48.180;14.178;2023-03-14T13:37:45;2.85;;;1.02;;
7645;SDS011;3864;48.180;14.178;2023-03-14T13:40:23;1.52;;;0.70;;
7645;SDS011;3864;48.180;14.178;2023-03-14T13:42:59;2.65;;;0.77;;
7645;SDS011;3864;48.180;14.178;2023-03-14T13:45:26;0.65;;;0.47;;
7645;SDS011;3864;48.180;14.178;2023-03-14T13:50:19;1.27;;;0.63;;
7645;SDS011;3864;48.180;14.178;2023-03-14T13:52:48;0.55;;;0.55;;
7645;SDS011;3864;48.180;14.178;2023-03-14T13:55:20;4.40;;;0.70;;
7645;SDS011;3864;48.180;14.178;2023-03-14T14:00:17;0.90;;;0.63;;
7645;SDS011;3864;48.180;14.178;2023-03-14T14:02:46;0.85;;;0.52;;
7645;SDS011;3864;48.180;14.178;2023-03-14T14:05:14;0.82;;;0.80;;
7645;SDS011;3864;48.180;14.178;2023-03-14T14:07:43;0.88;;;0.55;;
7645;SDS011;3864;48.180;14.178;2023-03-14T14:10:12;1.30;;;0.88;;
7645;SDS011;3864;48.180;14.178;2023-03-14T14:12:40;1.52;;;1.00;;
7645;SDS011;3864;48.180;14.178;2023-03-14T14:15:09;1.40;;;0.80;;
7645;SDS011;3864;48.180;14.178;2023-03-14T14:17:38;0.95;;;0.65;;
7645;SDS011;3864;48.180;14.178;2023-03-14T14:20:08;1.55;;;0.50;;
7645;SDS011;3864;48.180;14.178;2023-03-14T14:22:40;1.05;;;0.77;;
7645;SDS011;3864;48.180;14.178;2023-03-14T14:25:12;0.73;;;0.63;;
7645;SDS011;3864;48.180;14.178;2023-03-14T14:27:42;0.75;;;0.47;;
7645;SDS011;3864;48.180;14.178;2023-03-14T14:32:50;0.60;;;0.60;;
7645;SDS011;3864;48.180;14.178;2023-03-14T14:35:22;0.68;;;0.60;;
7645;SDS011;3864;48.180;14.178;2023-03-14T14:37:49;0.85;;;0.70;;
7645;SDS011;3864;48.180;14.178;2023-03-14T14:40:17;1.17;;;0.80;;
7645;SDS011;3864;48.180;14.178;2023-03-14T14:42:47;1.27;;;0.73;;
7645;SDS011;3864;48.180;14.178;2023-03-14T14:45:14;0.85;;;0.57;;
7645;SDS011;3864;48.180;14.178;2023-03-14T14:47:49;1.52;;;0.80;;
7645;SDS011;3864;48.180;14.178;2023-03-14T14:52:43;1.90;;;0.95;;
7645;SDS011;3864;48.180;14.178;2023-03-14T14:55:11;1.83;;;1.00;;
7645;SDS011;3864;48.180;14.178;2023-03-14T14:57:40;2.08;;;1.20;;
7645;SDS011;3864;48.180;14.178;2023-03-14T15:00:19;2.28;;;1.40;;
7645;SDS011;3864;48.180;14.178;2023-03-14T15:02:50;2.70;;;1.40;;
7645;SDS011;3864;48.180;14.178;2023-03-14T15:05:18;2.42;;;1.30;;
7645;SDS011;3864;48.180;14.178;2023-03-14T15:07:45;2.40;;;1.25;;
7645;SDS011;3864;48.180;14.178;2023-03-14T15:10:13;2.53;;;1.05;;
7645;SDS011;3864;48.180;14.178;2023-03-14T15:12:40;1.38;;;1.02;;
7645;SDS011;3864;48.180;14.178;2023-03-14T15:15:07;1.67;;;0.90;;
7645;SDS011;3864;48.180;14.178;2023-03-14T15:17:35;1.65;;;1.10;;
7645;SDS011;3864;48.180;14.178;2023-03-14T15:20:02;1.80;;;0.93;;
7645;SDS011;3864;48.180;14.178;2023-03-14T15:22:30;2.63;;;1.20;;
7645;SDS011;3864;48.180;14.178;2023-03-14T15:24:57;1.35;;;0.98;;
7645;SDS011;3864;48.180;14.178;2023-03-14T15:27:24;1.05;;;0.90;;
7645;SDS011;3864;48.180;14.178;2023-03-14T15:29:51;1.35;;;0.95;;
7645;SDS011;3864;48.180;14.178;2023-03-14T15:34:46;1.30;;;0.90;;
7645;SDS011;3864;48.180;14.178;2023-03-14T15:37:13;1.75;;;1.08;;
7645;SDS011;3864;48.180;14.178;2023-03-14T15:39:41;2.20;;;1.00;;
7645;SDS011;3864;48.180;14.178;2023-03-14T15:42:08;2.85;;;1.20;;
7645;SDS011;3864;48.180;14.178;2023-03-14T15:44:35;2.40;;;1.65;;
7645;SDS011;3864;48.180;14.178;2023-03-14T15:49:29;2.17;;;1.58;;
7645;SDS011;3864;48.180;14.178;2023-03-14T15:51:57;1.83;;;1.20;;
7645;SDS011;3864;48.180;14.178;2023-03-14T15:54:24;2.35;;;1.23;;
7645;SDS011;3864;48.180;14.178;2023-03-14T15:56:53;2.50;;;1.50;;
7645;SDS011;3864;48.180;14.178;2023-03-14T15:59:20;2.33;;;1.30;;
7645;SDS011;3864;48.180;14.178;2023-03-14T16:04:14;4.75;;;1.50;;
7645;SDS011;3864;48.180;14.178;2023-03-14T16:09:11;2.42;;;1.38;;
7645;SDS011;3864;48.180;14.178;2023-03-14T16:11:38;3.88;;;1.73;;
7645;SDS011;3864;48.180;14.178;2023-03-14T16:14:05;2.58;;;1.50;;
7645;SDS011;3864;48.180;14.178;2023-03-14T16:18:59;2.47;;;1.60;;
7645;SDS011;3864;48.180;14.178;2023-03-14T16:21:27;2.67;;;1.60;;
7645;SDS011;3864;48.180;14.178;2023-03-14T16:23:53;2.88;;;1.42;;
7645;SDS011;3864;48.180;14.178;2023-03-14T16:26:22;2.13;;;1.50;;
7645;SDS011;3864;48.180;14.178;2023-03-14T16:28:49;2.33;;;1.30;;
7645;SDS011;3864;48.180;14.178;2023-03-14T16:33:42;2.83;;;1.60;;
7645;SDS011;3864;48.180;14.178;2023-03-14T16:36:09;2.40;;;1.52;;
7645;SDS011;3864;48.180;14.178;2023-03-14T16:38:37;2.80;;;1.40;;
7645;SDS011;3864;48.180;14.178;2023-03-14T16:41:04;2.55;;;1.70;;
7645;SDS011;3864;48.180;14.178;2023-03-14T16:43:33;2.10;;;1.60;;
7645;SDS011;3864;48.180;14.178;2023-03-14T16:46:02;2.35;;;1.50;;
7645;SDS011;3864;48.180;14.178;2023-03-14T16:48:29;2.40;;;1.40;;
7645;SDS011;3864;48.180;14.178;2023-03-14T16:50:57;2.58;;;1.83;;
7645;SDS011;3864;48.180;14.178;2023-03-14T16:53:24;1.30;;;0.98;;
7645;SDS011;3864;48.180;14.178;2023-03-14T16:55:53;2.15;;;1.40;;
7645;SDS011;3864;48.180;14.178;2023-03-14T17:00:49;3.05;;;1.50;;
7645;SDS011;3864;48.180;14.178;2023-03-14T17:03:16;1.98;;;1.27;;
7645;SDS011;3864;48.180;14.178;2023-03-14T17:05:43;2.67;;;1.00;;
7645;SDS011;3864;48.180;14.178;2023-03-14T17:08:11;1.50;;;0.88;;
7645;SDS011;3864;48.180;14.178;2023-03-14T17:10:38;1.90;;;0.98;;
7645;SDS011;3864;48.180;14.178;2023-03-14T17:15:31;2.28;;;1.50;;
7645;SDS011;3864;48.180;14.178;2023-03-14T17:20:28;2.25;;;1.38;;
7645;SDS011;3864;48.180;14.178;2023-03-14T17:22:56;3.25;;;1.67;;
7645;SDS011;3864;48.180;14.178;2023-03-14T17:25:22;1.80;;;1.30;;
7645;SDS011;3864;48.180;14.178;2023-03-14T17:27:49;1.45;;;1.30;;
7645;SDS011;3864;48.180;14.178;2023-03-14T17:30:16;1.33;;;0.90;;
7645;SDS011;3864;48.180;14.178;2023-03-14T17:32:43;2.47;;;1.50;;
7645;SDS011;3864;48.180;14.178;2023-03-14T17:35:10;2.80;;;1.48;;
7645;SDS011;3864;48.180;14.178;2023-03-14T17:37:38;3.33;;;1.20;;
7645;SDS011;3864;48.180;14.178;2023-03-14T17:40:05;2.28;;;1.50;;
7645;SDS011;3864;48.180;14.178;2023-03-14T17:42:32;2.80;;;1.50;;
7645;SDS011;3864;48.180;14.178;2023-03-14T17:44:59;3.05;;;1.50;;
7645;SDS011;3864;48.180;14.178;2023-03-14T17:47:26;2.13;;;1.27;;
7645;SDS011;3864;48.180;14.178;2023-03-14T17:49:53;3.35;;;1.80;;
7645;SDS011;3864;48.180;14.178;2023-03-14T17:52:21;5.75;;;2.35;;
7645;SDS011;3864;48.180;14.178;2023-03-14T17:54:49;3.83;;;2.28;;
7645;SDS011;3864;48.180;14.178;2023-03-14T17:57:16;2.97;;;1.90;;
7645;SDS011;3864;48.180;14.178;2023-03-14T17:59:43;3.00;;;1.70;;
7645;SDS011;3864;48.180;14.178;2023-03-14T18:02:09;4.15;;;1.98;;
7645;SDS011;3864;48.180;14.178;2023-03-14T18:04:37;2.58;;;1.67;;
7645;SDS011;3864;48.180;14.178;2023-03-14T18:07:04;2.45;;;1.42;;
7645;SDS011;3864;48.180;14.178;2023-03-14T18:09:31;2.47;;;1.52;;
7645;SDS011;3864;48.180;14.178;2023-03-14T18:12:00;12.15;;;6.28;;
7645;SDS011;3864;48.180;14.178;2023-03-14T18:14:27;4.05;;;2.40;;
7645;SDS011;3864;48.180;14.178;2023-03-14T18:19:21;1.50;;;1.30;;
7645;SDS011;3864;48.180;14.178;2023-03-14T18:21:48;2.03;;;1.40;;
7645;SDS011;3864;48.180;14.178;2023-03-14T18:24:16;1.98;;;1.50;;
7645;SDS011;3864;48.180;14.178;2023-03-14T18:26:43;2.50;;;1.40;;
7645;SDS011;3864;48.180;14.178;2023-03-14T18:31:40;2.75;;;1.70;;
7645;SDS011;3864;48.180;14.178;2023-03-14T18:34:07;1.92;;;1.23;;
7645;SDS011;3864;48.180;14.178;2023-03-14T18:39:00;2.33;;;1.20;;
7645;SDS011;3864;48.180;14.178;2023-03-14T18:41:28;2.50;;;1.40;;
7645;SDS011;3864;48.180;14.178;2023-03-14T18:43:55;1.67;;;1.33;;
7645;SDS011;3864;48.180;14.178;2023-03-14T18:46:22;2.92;;;1.20;;
7645;SDS011;3864;48.180;14.178;2023-03-14T18:48:50;2.25;;;1.38;;
7645;SDS011;3864;48.180;14.178;2023-03-14T18:51:20;1.73;;;1.38;;
7645;SDS011;3864;48.180;14.178;2023-03-14T18:53:48;1.27;;;1.00;;
7645;SDS011;3864;48.180;14.178;2023-03-14T18:56:15;1.67;;;1.30;;
7645;SDS011;3864;48.180;14.178;2023-03-14T18:58:42;1.85;;;1.10;;
7645;SDS011;3864;48.180;14.178;2023-03-14T19:01:09;2.55;;;1.17;;
7645;SDS011;3864;48.180;14.178;2023-03-14T19:03:37;2.35;;;1.30;;
7645;SDS011;3864;48.180;14.178;2023-03-14T19:06:06;2.13;;;1.48;;
7645;SDS011;3864;48.180;14.178;2023-03-14T19:08:34;13.27;;;6.72;;
7645;SDS011;3864;48.180;14.178;2023-03-14T19:11:02;23.27;;;10.75;;
7645;SDS011;3864;48.180;14.178;2023-03-14T19:13:29;6.38;;;3.30;;
7645;SDS011;3864;48.180;14.178;2023-03-14T19:15:56;4.43;;;2.38;;
7645;SDS011;3864;48.180;14.178;2023-03-14T19:20:54;5.90;;;2.97;;
7645;SDS011;3864;48.180;14.178;2023-03-14T19:23:23;3.35;;;1.92;;
7645;SDS011;3864;48.180;14.178;2023-03-14T19:25:49;2.08;;;1.40;;
7645;SDS011;3864;48.180;14.178;2023-03-14T19:30:43;3.33;;;1.63;;
7645;SDS011;3864;48.180;14.178;2023-03-14T19:33:10;2.65;;;1.83;;
7645;SDS011;3864;48.180;14.178;2023-03-14T19:35:37;2.30;;;1.80;;
7645;SDS011;3864;48.180;14.178;2023-03-14T19:38:04;1.45;;;1.20;;
7645;SDS011;3864;48.180;14.178;2023-03-14T19:40:34;4.78;;;1.85;;
7645;SDS011;3864;48.180;14.178;2023-03-14T19:43:01;3.03;;;1.70;;
7645;SDS011;3864;48.180;14.178;2023-03-14T19:45:27;2.67;;;1.70;;
7645;SDS011;3864;48.180;14.178;2023-03-14T19:47:56;2.95;;;1.85;;
7645;SDS011;3864;48.180;14.178;2023-03-14T19:50:23;2.95;;;1.88;;
7645;SDS011;3864;48.180;14.178;2023-03-14T19:52:50;3.22;;;1.60;;
7645;SDS011;3864;48.180;14.178;2023-03-14T19:55:17;3.80;;;1.60;;
7645;SDS011;3864;48.180;14.178;2023-03-14T20:00:13;2.75;;;1.85;;
7645;SDS011;3864;48.180;14.178;2023-03-14T20:02:41;2.22;;;1.42;;
7645;SDS011;3864;48.180;14.178;2023-03-14T20:05:08;3.80;;;1.60;;
7645;SDS011;3864;48.180;14.178;2023-03-14T20:07:35;1.75;;;1.40;;
7645;SDS011;3864;48.180;14.178;2023-03-14T20:12:29;2.15;;;1.50;;
7645;SDS011;3864;48.180;14.178;2023-03-14T20:14:57;2.42;;;1.50;;
7645;SDS011;3864;48.180;14.178;2023-03-14T20:17:26;2.38;;;1.60;;
7645;SDS011;3864;48.180;14.178;2023-03-14T20:19:53;9.55;;;2.17;;
7645;SDS011;3864;48.180;14.178;2023-03-14T20:22:20;3.17;;;1.90;;
7645;SDS011;3864;48.180;14.178;2023-03-14T20:24:46;5.43;;;1.60;;
7645;SDS011;3864;48.180;14.178;2023-03-14T20:27:14;4.63;;;1.90;;
7645;SDS011;3864;48.180;14.178;2023-03-14T20:29:41;3.38;;;1.58;;
7645;SDS011;3864;48.180;14.178;2023-03-14T20:32:08;3.28;;;1.60;;
7645;SDS011;3864;48.180;14.178;2023-03-14T20:34:37;2.72;;;1.35;;
7645;SDS011;3864;48.180;14.178;2023-03-14T20:37:04;1.63;;;1.23;;
7645;SDS011;3864;48.180;14.178;2023-03-14T20:39:32;2.50;;;1.25;;
7645;SDS011;3864;48.180;14.178;2023-03-14T20:41:59;2.78;;;1.50;;
7645;SDS011;3864;48.180;14.178;2023-03-14T20:44:26;2.83;;;1.30;;
7645;SDS011;3864;48.180;14.178;2023-03-14T20:46:53;2.30;;;1.30;;
7645;SDS011;3864;48.180;14.178;2023-03-14T20:49:20;2.97;;;1.60;;
7645;SDS011;3864;48.180;14.178;2023-03-14T20:51:48;1.55;;;1.17;;
7645;SDS011;3864;48.180;14.178;2023-03-14T20:54:15;2.40;;;1.10;;
7645;SDS011;3864;48.180;14.178;2023-03-14T20:56:41;3.17;;;1.27;;
7645;SDS011;3864;48.180;14.178;2023-03-14T20:59:10;1.92;;;1.40;;
7645;SDS011;3864;48.180;14.178;2023-03-14T21:01:37;1.50;;;1.27;;
7645;SDS011;3864;48.180;14.178;2023-03-14T21:04:04;2.33;;;1.42;;
7645;SDS011;3864;48.180;14.178;2023-03-14T21:06:31;3.13;;;1.30;;
7645;SDS011;3864;48.180;14.178;2023-03-14T21:11:30;0.95;;;0.95;;
7645;SDS011;3864;48.180;14.178;2023-03-14T21:14:00;9.05;;;1.55;;
7645;SDS011;3864;48.180;14.178;2023-03-14T21:16:27;2.50;;;1.33;;
7645;SDS011;3864;48.180;14.178;2023-03-14T21:18:54;2.85;;;1.30;;
7645;SDS011;3864;48.180;14.178;2023-03-14T21:21:21;2.13;;;1.13;;
7645;SDS011;3864;48.180;14.178;2023-03-14T21:23:48;2.60;;;1.42;;
7645;SDS011;3864;48.180;14.178;2023-03-14T21:26:18;4.95;;;2.30;;
7645;SDS011;3864;48.180;14.178;2023-03-14T21:28:46;5.38;;;2.58;;
7645;SDS011;3864;48.180;14.178;2023-03-14T21:31:13;2.17;;;1.60;;
7645;SDS011;3864;48.180;14.178;2023-03-14T21:36:07;1.48;;;1.08;;
7645;SDS011;3864;48.180;14.178;2023-03-14T21:38:35;2.65;;;1.40;;
7645;SDS011;3864;48.180;14.178;2023-03-14T21:41:01;4.25;;;1.50;;
7645;SDS011;3864;48.180;14.178;2023-03-14T21:43:30;1.58;;;1.30;;
7645;SDS011;3864;48.180;14.178;2023-03-14T21:45:59;2.05;;;1.25;;
7645;SDS011;3864;48.180;14.178;2023-03-14T21:48:26;1.60;;;1.42;;
7645;SDS011;3864;48.180;14.178;2023-03-14T21:50:52;3.13;;;1.35;;
7645;SDS011;3864;48.180;14.178;2023-03-14T21:53:19;3.05;;;1.55;;
7645;SDS011;3864;48.180;14.178;2023-03-14T21:55:53;2.85;;;1.40;;
7645;SDS011;3864;48.180;14.178;2023-03-14T21:58:20;3.45;;;1.30;;
7645;SDS011;3864;48.180;14.178;2023-03-14T22:00:48;1.45;;;1.08;;
7645;SDS011;3864;48.180;14.178;2023-03-14T22:03:16;1.80;;;1.30;;
7645;SDS011;3864;48.180;14.178;2023-03-14T22:05:44;2.53;;;1.40;;
7645;SDS011;3864;48.180;14.178;2023-03-14T22:08:11;3.08;;;1.30;;
7645;SDS011;3864;48.180;14.178;2023-03-14T22:13:04;3.28;;;1.40;;
7645;SDS011;3864;48.180;14.178;2023-03-14T22:17:58;1.20;;;0.82;;
7645;SDS011;3864;48.180;14.178;2023-03-14T22:20:26;2.80;;;1.52;;
7645;SDS011;3864;48.180;14.178;2023-03-14T22:22:53;2.33;;;1.15;;
7645;SDS011;3864;48.180;14.178;2023-03-14T22:25:20;3.28;;;1.30;;
7645;SDS011;3864;48.180;14.178;2023-03-14T22:27:46;2.53;;;1.50;;
7645;SDS011;3864;48.180;14.178;2023-03-14T22:30:13;2.50;;;1.40;;
7645;SDS011;3864;48.180;14.178;2023-03-14T22:32:40;5.65;;;1.50;;
7645;SDS011;3864;48.180;14.178;2023-03-14T22:35:07;2.08;;;1.48;;
7645;SDS011;3864;48.180;14.178;2023-03-14T22:37:36;3.08;;;1.30;;
7645;SDS011;3864;48.180;14.178;2023-03-14T22:40:03;2.30;;;1.33;;
7645;SDS011;3864;48.180;14.178;2023-03-14T22:42:30;3.20;;;1.40;;